Time;durP1;ratioP1;P1;durP2;ratioP2;P2;SDS_P1;SDS_P2;PMS_P1;PMS_P2;Temp;Humidity;BMP_temperature;BMP_pressure;BME280_temperature;BME280_humidity;BME280_pressure;Samples;Min_cycle;Max_cycle;Signal;HPM_P1;HPM_P2
2023/07/24 00:00:25;;;;;;;14.43;8.77;;;;;;;22.31;63.67;65337.69;5010748;28;20715;-53
2023/07/24 00:02:53;;;;;;;14.90;9.20;;;;;;;22.09;62.43;65315.91;5010500;28;20219;-53
2023/07/24 00:05:18;;;;;;;12.68;8.85;;;;;;;21.94;62.90;65296.75;5010635;28;20326;-53
2023/07/24 00:07:44;;;;;;;12.88;9.15;;;;;;;21.91;63.32;65290.84;5010561;28;20226;-54
2023/07/24 00:10:09;;;;;;;12.25;8.40;;;;;;;21.84;63.93;65288.22;5010661;28;20673;-53
2023/07/24 00:12:35;;;;;;;11.48;8.20;;;;;;;21.69;65.77;65272.19;5010581;28;20286;-53
2023/07/24 00:15:01;;;;;;;12.30;8.55;;;;;;;21.70;66.66;65268.72;5010444;28;20191;-56
2023/07/24 00:17:26;;;;;;;12.43;8.68;;;;;;;21.77;64.67;65277.91;5010642;28;20720;-54
2023/07/24 00:19:51;;;;;;;14.75;9.35;;;;;;;21.71;64.62;65272.38;5009223;28;20713;-55
2023/07/24 00:22:17;;;;;;;11.93;8.52;;;;;;;21.83;64.69;65284.56;5010708;28;20713;-53
2023/07/24 00:24:43;;;;;;;13.90;9.32;;;;;;;21.96;65.17;65299.50;5010321;28;20275;-59
2023/07/24 00:27:08;;;;;;;13.10;8.95;;;;;;;22.02;65.21;65306.16;5010348;28;20203;-53
2023/07/24 00:29:34;;;;;;;14.18;8.98;;;;;;;21.93;65.02;65298.19;5010419;28;20560;-53
2023/07/24 00:31:59;;;;;;;16.00;9.52;;;;;;;21.65;66.87;65263.16;5010200;28;20681;-53
2023/07/24 00:34:26;;;;;;;13.00;8.73;;;;;;;21.49;68.42;65250.59;5010232;28;20207;-53
2023/07/24 00:36:52;;;;;;;14.57;10.05;;;;;;;21.67;68.51;65267.41;4995238;28;20215;-54
2023/07/24 00:39:17;;;;;;;14.82;8.82;;;;;;;21.93;67.34;65296.19;5013811;28;20209;-53
2023/07/24 00:41:43;;;;;;;13.63;9.30;;;;;;;21.95;67.79;65298.41;5013562;28;20203;-58
2023/07/24 00:44:08;;;;;;;11.30;8.32;;;;;;;22.20;67.92;65328.09;5013491;28;20669;-53
2023/07/24 00:46:35;;;;;;;11.98;8.65;;;;;;;22.12;68.36;65317.22;5013816;28;20743;-56
2023/07/24 00:49:02;;;;;;;12.18;8.20;;;;;;;22.02;68.46;65305.59;5013787;28;20223;-53
2023/07/24 00:51:28;;;;;;;14.93;8.80;;;;;;;21.89;69.56;65291.22;5013748;28;20692;-53
2023/07/24 00:54:01;;;;;;;12.20;8.90;;;;;;;21.77;69.91;65277.91;5013671;28;20206;-54
2023/07/24 00:56:28;;;;;;;12.63;9.20;;;;;;;21.74;70.10;65273.13;5013286;28;20215;-53
2023/07/24 00:58:57;;;;;;;13.43;9.13;;;;;;;21.79;69.89;65282.69;5013330;28;20294;-53
2023/07/24 01:01:24;;;;;;;13.48;8.57;;;;;;;21.84;69.91;65288.22;5013582;28;20276;-53
2023/07/24 01:03:51;;;;;;;13.43;9.20;;;;;;;21.95;69.14;65297.84;5013451;28;20249;-54
2023/07/24 01:06:17;;;;;;;13.30;9.40;;;;;;;22.20;66.54;65326.06;5013138;28;20241;-53
2023/07/24 01:08:42;;;;;;;17.38;9.90;;;;;;;22.02;65.05;65305.59;5013314;28;20301;-54
2023/07/24 01:11:24;;;;;;;12.77;9.25;;;;;;;21.72;65.75;65272.94;5013336;28;20218;-54
2023/07/24 01:13:57;;;;;;;16.13;8.80;;;;;;;21.59;66.61;65258.56;5013143;28;20708;-53
2023/07/24 01:16:31;;;;;;;12.20;8.52;;;;;;;21.52;67.49;65250.81;5012967;28;20290;-54
2023/07/24 01:18:57;;;;;;;10.95;8.68;;;;;;;21.27;68.53;65221.13;5013309;28;20406;-54
2023/07/24 01:21:44;;;;;;;11.57;8.40;;;;;;;21.37;70.00;65234.75;5013026;28;20306;-53
2023/07/24 01:24:29;;;;;;;13.38;8.55;;;;;;;21.44;69.37;65244.53;4996548;28;20211;-54
2023/07/24 01:26:54;;;;;;;11.90;8.55;;;;;;;21.49;69.76;65248.03;5013201;28;20684;-53
2023/07/24 01:29:20;;;;;;;12.82;8.40;;;;;;;21.44;70.23;65245.06;5013124;28;20211;-54
2023/07/24 01:31:45;;;;;;;11.50;8.65;;;;;;;21.27;71.06;65223.69;5012554;28;20715;-53
2023/07/24 01:34:11;;;;;;;11.27;8.15;;;;;;;21.19;71.92;65214.84;5010816;28;20226;-54
2023/07/24 01:36:37;;;;;;;13.07;9.52;;;;;;;21.10;72.13;65207.47;4992898;28;20851;-54
2023/07/24 01:39:03;;;;;;;13.13;8.45;;;;;;;21.05;73.72;65196.81;5010691;28;20287;-55
2023/07/24 01:41:28;;;;;;;10.10;8.25;;;;;;;20.99;72.64;65190.16;5010438;28;20748;-54
2023/07/24 01:43:54;;;;;;;12.52;8.50;;;;;;;20.95;73.73;65185.72;5012347;28;20205;-54
2023/07/24 01:46:19;;;;;;;13.65;8.88;;;;;;;20.88;74.25;65178.00;5012958;28;20218;-54
2023/07/24 01:48:46;;;;;;;11.88;8.65;;;;;;;20.71;75.15;65164.88;5010298;28;20626;-54
2023/07/24 01:51:11;;;;;;;11.80;8.85;;;;;;;20.76;75.44;65167.88;5012458;28;20296;-54
2023/07/24 01:53:37;;;;;;;12.00;8.25;;;;;;;20.81;74.65;65172.81;5012509;28;20670;-53
2023/07/24 01:56:02;;;;;;;14.60;9.70;;;;;;;20.58;74.11;65147.41;5012694;28;20207;-54
2023/07/24 01:58:28;;;;;;;14.30;9.40;;;;;;;20.85;73.04;65179.81;5012570;28;20202;-53
2023/07/24 02:00:56;;;;;;;14.18;8.32;;;;;;;20.87;72.60;65180.00;5012333;28;20198;-56
2023/07/24 02:03:21;;;;;;;15.20;10.43;;;;;;;20.81;73.58;65173.38;5012485;28;20202;-52
2023/07/24 02:05:51;;;;;;;14.98;9.45;;;;;;;20.70;73.61;65163.78;5012452;28;20201;-57
2023/07/24 02:08:16;;;;;;;13.90;9.23;;;;;;;20.63;73.97;65153.47;5012132;28;20243;-53
2023/07/24 02:10:41;;;;;;;14.45;9.10;;;;;;;20.56;74.86;65148.28;5012466;28;20195;-54
2023/07/24 02:13:07;;;;;;;15.13;9.50;;;;;;;20.60;75.38;65152.19;5012319;28;20771;-54
2023/07/24 02:15:33;;;;;;;15.65;9.55;;;;;;;20.72;75.35;65165.44;5012302;28;20665;-53
2023/07/24 02:17:58;;;;;;;13.55;8.85;;;;;;;20.85;75.64;65177.25;5012020;28;20693;-53
2023/07/24 02:20:24;;;;;;;14.35;8.98;;;;;;;20.71;76.28;65161.75;5012165;28;20230;-52
2023/07/24 02:22:49;;;;;;;13.98;9.65;;;;;;;20.53;77.83;65141.88;5012050;28;20208;-56
2023/07/24 02:25:14;;;;;;;14.80;9.52;;;;;;;20.55;78.95;65144.09;5012025;28;20603;-53
2023/07/24 02:27:40;;;;;;;14.90;8.82;;;;;;;20.57;76.26;65144.28;5011815;28;20260;-53
2023/07/24 02:30:06;;;;;;;15.77;10.18;;;;;;;20.29;77.20;65118.47;5011832;28;20681;-53
2023/07/24 02:32:32;;;;;;;12.65;8.85;;;;;;;20.21;77.57;65107.06;5012088;28;20284;-53
2023/07/24 02:34:57;;;;;;;14.23;9.20;;;;;;;20.15;78.27;65102.97;5011852;28;20692;-62
2023/07/24 02:37:23;;;;;;;14.10;10.13;;;;;;;20.12;79.23;65094.00;5012037;28;20220;-54
2023/07/24 02:39:48;;;;;;;13.15;9.02;;;;;;;20.18;77.63;65103.19;5011816;28;20210;-53
2023/07/24 02:42:14;;;;;;;15.35;9.82;;;;;;;20.36;76.85;65123.09;5011989;28;20248;-54
2023/07/24 02:44:39;;;;;;;15.38;9.70;;;;;;;20.13;76.31;65097.66;5011828;28;20685;-53
2023/07/24 02:47:05;;;;;;;12.82;8.93;;;;;;;19.95;77.26;65075.78;5011800;28;20728;-53
2023/07/24 02:49:31;;;;;;;13.23;8.23;;;;;;;20.07;76.51;65091.59;5011700;28;20226;-53
2023/07/24 02:51:56;;;;;;;13.68;8.75;;;;;;;19.93;76.72;65078.69;5011418;28;20300;-54
2023/07/24 02:54:22;;;;;;;14.85;8.82;;;;;;;19.97;76.21;65083.09;5011855;28;20281;-53
2023/07/24 02:56:47;;;;;;;16.25;9.85;;;;;;;20.04;75.45;65088.81;5011884;28;20210;-53
2023/07/24 02:59:12;;;;;;;15.48;9.55;;;;;;;20.09;76.61;65096.91;5011388;28;20564;-54
2023/07/24 03:01:39;;;;;;;15.10;9.75;;;;;;;20.06;76.01;65093.03;5011350;28;20203;-53
2023/07/24 03:04:05;;;;;;;13.32;9.70;;;;;;;19.98;76.59;65082.19;5011831;28;20238;-54
2023/07/24 03:06:32;;;;;;;14.55;9.43;;;;;;;20.23;75.23;65106.16;5010174;28;20210;-53
2023/07/24 03:08:57;;;;;;;15.07;10.18;;;;;;;20.22;74.80;65107.63;5011278;28;20219;-53
2023/07/24 03:11:22;;;;;;;15.75;11.07;;;;;;;20.25;74.28;65113.50;5011375;28;20295;-54
2023/07/24 03:13:48;;;;;;;14.48;9.52;;;;;;;20.14;75.40;65101.88;5011188;28;20203;-56
2023/07/24 03:16:13;;;;;;;14.60;9.85;;;;;;;19.86;77.46;65068.94;5011218;28;20207;-54
2023/07/24 03:18:39;;;;;;;16.65;9.93;;;;;;;19.69;78.74;65055.28;5011227;28;20282;-54
2023/07/24 03:21:04;;;;;;;13.80;9.93;;;;;;;19.60;79.87;65040.22;5011464;28;20210;-53
2023/07/24 03:23:30;;;;;;;14.85;10.25;;;;;;;19.39;81.29;65016.50;5011042;28;20214;-53
2023/07/24 03:25:55;;;;;;;14.82;9.85;;;;;;;19.44;81.20;65022.00;5011354;28;20202;-53
2023/07/24 03:28:21;;;;;;;15.93;10.43;;;;;;;19.53;81.07;65032.50;5011037;28;20223;-53
2023/07/24 03:30:46;;;;;;;15.98;9.27;;;;;;;19.53;81.35;65029.41;5009566;28;20603;-53
2023/07/24 03:33:12;;;;;;;17.02;9.85;;;;;;;19.60;81.50;65037.66;5011348;28;20175;-54
2023/07/24 03:35:39;;;;;;;14.52;10.10;;;;;;;19.77;80.44;65061.56;5010778;28;20596;-54
2023/07/24 03:38:05;;;;;;;15.90;10.50;;;;;;;19.82;81.19;65069.06;5010941;28;20290;-54
2023/07/24 03:40:30;;;;;;;15.95;10.80;;;;;;;20.01;80.75;65082.41;5011025;28;20291;-57
2023/07/24 03:42:55;;;;;;;18.20;10.77;;;;;;;19.99;80.68;65085.88;5011035;28;20686;-54
2023/07/24 03:45:21;;;;;;;17.42;10.82;;;;;;;20.02;80.06;65086.06;5010754;28;20599;-53
2023/07/24 03:47:47;;;;;;;14.55;9.75;;;;;;;20.17;78.37;65099.50;5010683;28;20242;-56
2023/07/24 03:50:12;;;;;;;16.88;11.07;;;;;;;19.98;79.04;65082.19;5010769;28;20736;-54
2023/07/24 03:52:38;;;;;;;14.30;10.13;;;;;;;19.90;79.46;65072.78;5009475;28;20719;-53
2023/07/24 03:55:05;;;;;;;14.95;9.23;;;;;;;19.86;80.38;65068.94;5009274;28;20269;-53
2023/07/24 03:57:30;;;;;;;17.10;10.88;;;;;;;19.97;79.57;65083.09;5010755;28;20230;-53
2023/07/24 03:59:56;;;;;;;16.90;9.95;;;;;;;20.07;79.79;65094.16;5010503;28;20230;-54
2023/07/24 04:02:24;;;;;;;17.95;10.52;;;;;;;20.14;79.84;65099.31;4992794;28;20685;-54
2023/07/24 04:04:49;;;;;;;16.92;11.35;;;;;;;20.16;79.09;65098.41;5010869;28;20199;-54
2023/07/24 04:07:15;;;;;;;15.40;9.73;;;;;;;20.34;78.57;65123.97;5009202;28;20214;-54
2023/07/24 04:09:40;;;;;;;17.58;10.07;;;;;;;20.55;78.25;65144.63;5010564;28;20292;-52
2023/07/24 04:12:07;;;;;;;15.68;10.25;;;;;;;20.47;78.72;65135.25;5013608;28;20210;-54
2023/07/24 04:14:32;;;;;;;15.32;11.38;;;;;;;20.35;81.01;65125.09;5014076;28;20211;-53
2023/07/24 04:16:58;;;;;;;21.60;13.20;;;;;;;20.46;79.98;65131.59;5014078;28;20211;-53
2023/07/24 04:19:24;;;;;;;16.60;10.70;;;;;;;20.23;81.92;65111.28;5014039;28;20289;-53
2023/07/24 04:21:49;;;;;;;15.98;10.68;;;;;;;20.23;81.05;65106.16;5013778;28;20214;-53
2023/07/24 04:24:15;;;;;;;17.38;11.02;;;;;;;20.03;82.72;65084.59;5013847;28;20263;-53
2023/07/24 04:26:40;;;;;;;17.88;11.07;;;;;;;20.04;86.69;65090.81;5014156;28;20237;-53
2023/07/24 04:29:06;;;;;;;16.00;10.13;;;;;;;20.16;85.04;65103.53;5013773;28;20712;-53
2023/07/24 04:31:31;;;;;;;14.43;9.30;;;;;;;20.14;82.79;65098.78;5012178;28;20346;-55
2023/07/24 04:33:57;;;;;;;13.77;9.60;;;;;;;20.21;84.99;65109.06;5013908;28;20252;-53
2023/07/24 04:36:23;;;;;;;19.02;10.57;;;;;;;20.14;83.04;65098.78;5013769;28;20782;-53
2023/07/24 04:38:48;;;;;;;17.00;10.48;;;;;;;20.23;85.83;65108.72;5013824;28;20230;-53
2023/07/24 04:41:14;;;;;;;16.35;10.30;;;;;;;20.40;84.38;65127.53;5013676;28;20764;-54
2023/07/24 04:43:39;;;;;;;17.77;10.70;;;;;;;20.78;80.91;65169.50;5013677;28;20599;-53
2023/07/24 04:46:05;;;;;;;59.85;53.83;;;;;;;20.73;83.97;65164.53;5013828;28;20218;-53
2023/07/24 04:48:30;;;;;;;16.05;10.63;;;;;;;20.84;78.72;65176.72;5013374;28;20719;-52
2023/07/24 04:50:56;;;;;;;20.65;11.85;;;;;;;20.83;79.00;65177.59;5013565;28;20230;-53
2023/07/24 04:53:22;;;;;;;20.45;11.77;;;;;;;20.77;79.54;65168.97;5013452;28;20206;-52
2023/07/24 04:55:48;;;;;;;18.35;11.13;;;;;;;21.04;85.11;65197.72;5013338;28;20215;-53
2023/07/24 04:58:14;;;;;;;18.60;11.63;;;;;;;21.47;83.56;65245.28;5013453;28;20250;-53
2023/07/24 05:00:39;;;;;;;18.40;11.23;;;;;;;21.71;77.07;65269.81;5013392;28;20203;-53
2023/07/24 05:03:08;;;;;;;20.33;11.23;;;;;;;21.84;82.51;65288.22;5013087;28;20764;-53
2023/07/24 05:05:33;;;;;;;15.65;11.02;;;;;;;21.89;79.17;65289.19;5013252;28;20219;-54
2023/07/24 05:07:59;;;;;;;22.42;11.35;;;;;;;22.04;80.04;65308.34;5013047;28;20249;-53
2023/07/24 05:10:24;;;;;;;18.60;11.27;;;;;;;22.34;75.10;65344.13;5011965;28;20203;-54
2023/07/24 05:12:49;;;;;;;13.73;10.55;;;;;;;22.47;72.56;65353.41;5013043;28;20210;-53
2023/07/24 05:15:16;;;;;;;15.02;10.40;;;;;;;22.31;74.10;65338.25;5013072;28;20588;-53
2023/07/24 05:17:43;;;;;;;16.65;10.65;;;;;;;22.14;72.98;65318.88;5013164;28;20231;-52
2023/07/24 05:20:10;;;;;;;15.25;10.43;;;;;;;22.04;72.44;65305.25;5012863;28;20200;-53
2023/07/24 05:22:36;;;;;;;15.60;11.30;;;;;;;21.94;72.84;65297.28;5011643;28;20218;-53
2023/07/24 05:25:02;;;;;;;17.52;10.18;;;;;;;21.83;76.32;65282.00;5012922;28;20195;-54
2023/07/24 05:27:27;;;;;;;18.20;10.52;;;;;;;22.14;80.84;65318.88;5012844;28;20637;-53
2023/07/24 05:29:53;;;;;;;16.00;10.88;;;;;;;22.60;78.57;65369.81;5012879;28;20221;-54
2023/07/24 05:32:18;;;;;;;14.57;10.63;;;;;;;22.81;75.87;65392.50;5012904;28;20215;-53
2023/07/24 05:34:43;;;;;;;14.60;9.48;;;;;;;22.86;73.33;65398.63;4995021;28;20179;-57
2023/07/24 05:37:09;;;;;;;15.98;10.18;;;;;;;22.88;73.72;65400.84;5010957;28;20592;-53
2023/07/24 05:39:35;;;;;;;15.50;10.18;;;;;;;22.76;72.70;65384.41;5012601;28;20230;-52
2023/07/24 05:42:00;;;;;;;15.02;9.57;;;;;;;22.71;74.21;65384.56;5011400;28;20237;-52
2023/07/24 05:44:26;;;;;;;12.27;9.45;;;;;;;22.71;73.26;65379.44;5012630;28;20257;-53
2023/07/24 05:46:51;;;;;;;15.30;9.70;;;;;;;22.82;71.88;65391.06;5012666;28;20203;-56
2023/07/24 05:49:17;;;;;;;16.90;9.85;;;;;;;22.95;73.59;65406.00;4994788;28;20673;-53
2023/07/24 05:51:42;;;;;;;13.30;8.93;;;;;;;23.26;72.00;65442.94;5012498;28;20215;-54
2023/07/24 05:54:07;;;;;;;13.80;9.68;;;;;;;23.48;71.39;65466.19;5012524;28;20219;-53
2023/07/24 05:56:33;;;;;;;15.65;11.02;;;;;;;23.55;69.57;65474.53;5012748;28;20712;-54
2023/07/24 05:58:58;;;;;;;15.80;10.75;;;;;;;23.51;67.34;65466.97;5011482;28;20183;-53
2023/07/24 06:01:23;;;;;;;16.67;11.57;;;;;;;23.35;68.81;65452.91;5011287;28;20626;-54
2023/07/24 06:03:49;;;;;;;16.08;10.10;;;;;;;23.39;71.59;65456.25;5012346;28;20249;-54
2023/07/24 06:06:14;;;;;;;16.65;9.77;;;;;;;23.75;70.37;65494.13;5012549;28;20570;-54
2023/07/24 06:08:40;;;;;;;14.80;9.15;;;;;;;23.92;68.96;65512.41;5012504;28;20268;-54
2023/07/24 06:11:05;;;;;;;18.33;12.82;;;;;;;24.10;67.49;65534.94;5012406;28;20250;-54
2023/07/24 06:13:31;;;;;;;13.80;9.48;;;;;;;24.05;69.77;65529.41;5012488;28;20677;-54
2023/07/24 06:15:56;;;;;;;16.45;11.02;;;;;;;24.03;67.15;65524.63;5012321;28;20203;-54
2023/07/24 06:18:22;;;;;;;13.52;9.07;;;;;;;23.90;70.27;65512.75;5012216;28;20210;-53
2023/07/24 06:20:51;;;;;;;15.90;9.30;;;;;;;23.97;70.77;65517.94;5012077;28;20275;-53
2023/07/24 06:23:17;;;;;;;16.30;9.77;;;;;;;24.12;68.09;65539.75;5012099;28;20635;-53
2023/07/24 06:25:43;;;;;;;14.73;8.95;;;;;;;24.32;70.07;65559.34;5012209;28;20281;-54
2023/07/24 06:28:08;;;;;;;13.30;8.93;;;;;;;24.22;66.95;65548.25;5011926;28;20712;-53
2023/07/24 06:30:33;;;;;;;12.82;9.23;;;;;;;24.10;67.16;65534.94;5012247;28;20205;-54
2023/07/24 06:32:59;;;;;;;13.68;8.88;;;;;;;23.85;68.16;65507.22;5011346;28;20211;-56
2023/07/24 06:35:25;;;;;;;15.55;10.45;;;;;;;23.71;70.25;65489.69;5011989;28;20534;-53
2023/07/24 06:37:50;;;;;;;13.43;9.48;;;;;;;23.87;68.86;65507.41;5012159;28;20222;-53
2023/07/24 06:40:16;;;;;;;11.57;8.57;;;;;;;23.52;71.58;65471.19;5012091;28;20257;-54
2023/07/24 06:42:41;;;;;;;12.50;8.77;;;;;;;23.62;70.89;65479.16;5011876;28;20570;-58
2023/07/24 06:45:07;;;;;;;14.45;9.45;;;;;;;23.61;71.25;65480.63;5010457;28;20213;-58
2023/07/24 06:47:40;;;;;;;11.30;7.82;;;;;;;23.41;73.46;65456.44;5011855;28;20221;-53
2023/07/24 06:50:06;;;;;;;12.95;7.93;;;;;;;23.26;72.55;65440.34;5010286;28;20214;-54
2023/07/24 06:52:33;;;;;;;12.93;8.02;;;;;;;23.25;71.68;65441.81;5011528;28;20245;-52
2023/07/24 06:54:59;;;;;;;12.98;7.80;;;;;;;23.21;72.24;65437.38;5011876;28;20201;-53
2023/07/24 06:57:25;;;;;;;10.48;7.90;;;;;;;23.21;72.36;65434.81;5011339;28;20222;-58
2023/07/24 06:59:51;;;;;;;10.73;7.88;;;;;;;23.28;71.52;65442.56;5011665;28;20289;-53
2023/07/24 07:02:16;;;;;;;10.02;7.57;;;;;;;23.48;72.14;65468.78;4994034;28;20215;-54
2023/07/24 07:04:42;;;;;;;14.02;8.57;;;;;;;23.57;71.83;65476.19;5011559;28;20725;-54
2023/07/24 07:07:07;;;;;;;10.20;8.40;;;;;;;23.60;70.79;65476.94;5012053;28;20211;-55
2023/07/24 07:09:33;;;;;;;12.35;7.38;;;;;;;23.59;70.77;65478.41;5011577;28;20659;-57
2023/07/24 07:11:58;;;;;;;10.95;7.30;;;;;;;23.70;68.13;65488.00;5010101;28;20273;-57
2023/07/24 07:14:24;;;;;;;15.48;7.80;;;;;;;23.82;67.18;65507.03;4993833;28;20222;-52
2023/07/24 07:16:49;;;;;;;13.60;8.70;;;;;;;23.62;68.33;65484.28;5011267;28;20601;-53
2023/07/24 07:19:15;;;;;;;15.07;8.32;;;;;;;23.75;68.75;65493.56;5009968;28;20206;-54
2023/07/24 07:21:41;;;;;;;13.82;8.23;;;;;;;23.66;68.63;65486.16;5011196;28;20726;-54
2023/07/24 07:24:06;;;;;;;11.13;8.27;;;;;;;23.63;68.96;65480.81;5011139;28;20697;-53
2023/07/24 07:26:33;;;;;;;9.77;8.07;;;;;;;23.90;68.54;65510.75;5011588;28;20222;-57
2023/07/24 07:28:58;;;;;;;16.48;7.82;;;;;;;23.78;67.44;65496.88;5010910;28;20251;-53
2023/07/24 07:31:24;;;;;;;11.38;8.25;;;;;;;23.82;66.65;65501.88;5010945;28;20215;-53
2023/07/24 07:33:49;;;;;;;12.65;7.40;;;;;;;24.26;64.57;65550.09;5011038;28;20189;-55
2023/07/24 07:36:14;;;;;;;10.68;7.55;;;;;;;24.19;64.74;65542.34;5011542;28;20573;-56
2023/07/24 07:38:40;;;;;;;13.52;8.30;;;;;;;24.11;66.29;65533.50;5010913;28;20645;-54
2023/07/24 07:41:06;;;;;;;12.23;8.02;;;;;;;24.29;66.67;65556.03;5011277;28;20218;-53
2023/07/24 07:43:32;;;;;;;11.82;8.43;;;;;;;24.38;67.00;65562.88;5011186;28;20661;-54
2023/07/24 07:45:59;;;;;;;11.55;8.52;;;;;;;24.32;66.74;65556.75;5009846;28;20594;-54
2023/07/24 07:48:24;;;;;;;10.00;7.60;;;;;;;24.37;66.67;65561.75;5010949;28;20257;-55
2023/07/24 07:50:53;;;;;;;14.00;8.65;;;;;;;24.52;65.16;65578.41;5009579;28;20659;-54
2023/07/24 07:53:19;;;;;;;11.07;8.10;;;;;;;24.73;64.68;65604.84;5009601;28;20206;-53
2023/07/24 07:55:44;;;;;;;13.80;8.18;;;;;;;24.86;62.92;65616.69;5010906;28;20191;-54
2023/07/24 07:58:10;;;;;;;12.10;7.97;;;;;;;25.01;61.46;65637.94;5010693;28;20206;-54
2023/07/24 08:00:35;;;;;;;13.38;8.77;;;;;;;24.87;62.22;65620.38;5011207;28;20221;-54
2023/07/24 08:03:01;;;;;;;11.25;8.05;;;;;;;24.86;62.90;65616.69;5011197;28;20751;-53
2023/07/24 08:05:26;;;;;;;12.23;8.95;;;;;;;25.04;60.19;65635.53;5010533;28;20187;-53
2023/07/24 08:07:52;;;;;;;13.43;8.18;;;;;;;25.06;60.68;65640.34;5010670;28;20214;-53
2023/07/24 08:10:17;;;;;;;10.95;8.50;;;;;;;25.11;61.20;65643.88;5010604;28;20657;-53
2023/07/24 08:12:43;;;;;;;14.43;8.73;;;;;;;25.07;59.29;65638.88;5010661;28;20715;-53
2023/07/24 08:15:09;;;;;;;10.13;8.52;;;;;;;25.42;57.73;65678.31;5010621;28;20187;-54
2023/07/24 08:17:35;;;;;;;15.02;9.70;;;;;;;25.44;58.58;65677.38;5010389;28;20213;-53
2023/07/24 08:20:01;;;;;;;14.70;9.60;;;;;;;25.39;58.17;65676.97;5010545;28;20203;-54
2023/07/24 08:22:27;;;;;;;13.30;9.15;;;;;;;25.26;57.84;65657.94;5010799;28;20229;-53
2023/07/24 08:24:52;;;;;;;13.30;9.13;;;;;;;25.56;57.50;65693.28;5010401;28;20677;-53
2023/07/24 08:27:18;;;;;;;14.05;9.77;;;;;;;25.58;57.82;65695.50;5010177;28;20218;-54
2023/07/24 08:29:43;;;;;;;14.68;10.35;;;;;;;25.61;54.96;65699.38;5010317;28;20284;-53
2023/07/24 08:32:09;;;;;;;14.15;9.80;;;;;;;25.96;56.11;65737.16;5010780;28;20288;-53
2023/07/24 08:34:34;;;;;;;11.65;8.43;;;;;;;25.95;56.75;65734.00;5010282;28;20677;-54
2023/07/24 08:37:00;;;;;;;14.48;11.02;;;;;;;26.42;56.09;65786.22;5010683;28;20591;-54
2023/07/24 08:39:25;;;;;;;16.52;10.50;;;;;;;26.46;57.04;65795.28;5010541;28;20203;-56
2023/07/24 08:41:51;;;;;;;20.85;12.30;;;;;;;26.55;55.65;65805.84;5010697;28;20689;-54
2023/07/24 08:44:17;;;;;;;16.33;10.32;;;;;;;26.75;53.09;65824.38;5010242;28;20190;-55
2023/07/24 08:46:45;;;;;;;15.13;10.85;;;;;;;26.68;54.14;65819.19;5010221;28;20273;-54
2023/07/24 08:49:15;;;;;;;17.15;10.13;;;;;;;26.61;53.63;65809.91;5010349;28;20693;-54
2023/07/24 08:51:44;;;;;;;22.23;11.65;;;;;;;26.85;53.12;65836.06;5010083;28;20297;-60
2023/07/24 08:54:11;;;;;;;15.00;10.05;;;;;;;27.04;51.55;65854.03;5010077;28;20198;-54
2023/07/24 08:56:38;;;;;;;17.90;11.45;;;;;;;26.74;52.11;65823.28;5011135;28;20392;-54
2023/07/24 08:59:03;;;;;;;16.88;10.77;;;;;;;26.94;53.16;65843.47;5012387;28;20618;-53
2023/07/24 09:01:29;;;;;;;15.13;11.27;;;;;;;27.07;50.22;65862.56;5013310;28;20211;-54
2023/07/24 09:03:57;;;;;;;13.77;10.10;;;;;;;26.88;50.75;65838.84;5013128;28;20298;-54
2023/07/24 09:06:22;;;;;;;14.35;9.82;;;;;;;26.93;50.43;65841.78;5011980;28;20214;-54
2023/07/24 09:08:48;;;;;;;15.13;10.63;;;;;;;27.10;51.28;65860.69;5013324;28;20221;-59
2023/07/24 09:11:14;;;;;;;15.55;10.05;;;;;;;27.48;49.88;65905.00;5012953;28;20238;-53
2023/07/24 09:13:43;;;;;;;16.92;10.07;;;;;;;27.71;49.60;65928.00;5013214;28;20206;-53
2023/07/24 09:16:20;;;;;;;18.95;10.38;;;;;;;28.13;49.60;65977.31;4995547;28;20225;-54
2023/07/24 09:18:46;;;;;;;17.20;10.88;;;;;;;28.35;51.10;66001.25;5013659;28;20195;-54
2023/07/24 09:21:12;;;;;;;15.68;10.90;;;;;;;28.48;49.57;66016.28;5013126;28;20218;-54
2023/07/24 09:23:43;;;;;;;13.63;9.98;;;;;;;28.54;49.43;66019.78;5012983;28;20202;-54
2023/07/24 09:26:08;;;;;;;16.20;10.60;;;;;;;28.82;47.67;66048.38;4995267;28;20310;-54
2023/07/24 09:28:35;;;;;;;16.23;10.63;;;;;;;28.75;48.41;66043.75;5012664;28;20305;-54
2023/07/24 09:31:01;;;;;;;15.32;10.70;;;;;;;29.03;47.22;66077.50;5012409;28;20234;-56
2023/07/24 09:33:40;;;;;;;18.10;10.00;;;;;;;28.92;44.96;66064.72;5011738;28;20644;-54
2023/07/24 09:36:08;;;;;;;18.70;10.25;;;;;;;28.92;44.85;66062.13;5011055;28;20785;-55
2023/07/24 09:38:35;;;;;;;17.25;10.77;;;;;;;29.07;43.76;66078.25;5013020;28;20198;-54
2023/07/24 09:41:02;;;;;;;18.45;11.02;;;;;;;29.10;44.31;66084.75;5012766;28;20214;-54
2023/07/24 09:43:28;;;;;;;18.25;11.02;;;;;;;29.16;45.65;66094.06;5012726;28;20230;-55
2023/07/24 09:45:55;;;;;;;14.52;9.55;;;;;;;29.63;44.57;66141.22;5012793;28;20226;-54
2023/07/24 09:48:22;;;;;;;13.27;9.90;;;;;;;29.82;46.43;66164.97;5012408;28;20245;-53
2023/07/24 09:50:53;;;;;;;16.35;10.23;;;;;;;29.87;44.66;66167.41;5012888;28;20234;-54
2023/07/24 09:53:38;;;;;;;17.02;10.40;;;;;;;29.88;42.35;66171.09;5012776;28;20715;-53
2023/07/24 09:56:06;;;;;;;15.70;10.43;;;;;;;29.80;42.39;66162.19;5011383;28;20206;-54
2023/07/24 09:58:40;;;;;;;18.73;9.70;;;;;;;29.83;43.04;66162.94;5012879;28;20187;-53
2023/07/24 10:01:10;;;;;;;16.67;10.48;;;;;;;29.81;42.00;66161.28;5012924;28;20221;-54
2023/07/24 10:03:45;;;;;;;19.02;9.85;;;;;;;29.97;41.76;66180.59;5012580;28;20266;-54
2023/07/24 10:06:11;;;;;;;16.45;9.90;;;;;;;30.45;39.63;66231.50;5012516;28;20261;-53
2023/07/24 10:08:38;;;;;;;15.38;9.35;;;;;;;31.15;40.28;66309.03;5011329;28;20257;-53
2023/07/24 10:11:04;;;;;;;20.67;10.45;;;;;;;31.37;37.32;66330.97;5010851;28;20218;-54
2023/07/24 10:13:29;;;;;;;17.55;10.15;;;;;;;31.01;37.89;66291.34;5012230;28;20286;-56
2023/07/24 10:15:56;;;;;;;18.65;10.00;;;;;;;31.23;38.34;66318.50;5011975;28;20584;-54
2023/07/24 10:18:28;;;;;;;17.02;9.75;;;;;;;31.21;38.07;66318.88;5012389;28;20241;-53
2023/07/24 10:21:11;;;;;;;16.98;10.32;;;;;;;31.17;37.48;66314.41;5012071;28;20206;-57
2023/07/24 10:23:41;;;;;;;14.98;9.23;;;;;;;31.54;38.07;66352.53;5011933;28;20695;-53
2023/07/24 10:26:07;;;;;;;16.17;10.27;;;;;;;31.92;36.65;66394.38;5012140;28;20203;-53
2023/07/24 10:28:39;;;;;;;17.48;9.43;;;;;;;32.32;36.87;66441.69;5012231;28;20314;-53
2023/07/24 10:31:26;;;;;;;13.77;9.77;;;;;;;32.05;36.88;66409.47;5012526;28;20699;-54
2023/07/24 10:33:52;;;;;;;14.27;9.85;;;;;;;31.70;36.68;66370.38;5012221;28;20248;-61
2023/07/24 10:36:19;;;;;;;15.80;9.95;;;;;;;32.00;36.19;66403.31;5011892;28;20218;-53
2023/07/24 10:38:47;;;;;;;13.30;9.68;;;;;;;32.26;36.78;66432.38;5012151;28;20203;-53
2023/07/24 10:41:12;;;;;;;17.48;10.68;;;;;;;32.57;36.77;66466.41;5011977;28;20277;-53
2023/07/24 10:43:52;;;;;;;20.20;10.50;;;;;;;32.80;36.74;66490.06;5011869;28;20621;-53
2023/07/24 10:46:20;;;;;;;15.98;10.20;;;;;;;33.05;35.35;66520.63;5010323;28;20206;-53
2023/07/24 10:48:48;;;;;;;17.27;11.38;;;;;;;33.53;34.94;66573.72;5011963;28;20269;-58
2023/07/24 10:51:14;;;;;;;13.70;10.25;;;;;;;33.87;35.22;66613.78;5011619;28;20214;-54
2023/07/24 10:53:45;;;;;;;16.38;10.63;;;;;;;33.88;35.09;66609.09;5011668;28;20280;-53
2023/07/24 10:56:10;;;;;;;17.50;10.07;;;;;;;33.16;34.93;66529.16;5011485;28;20238;-57
2023/07/24 10:58:36;;;;;;;18.80;9.27;;;;;;;32.50;35.71;66459.19;5012038;28;20210;-53
2023/07/24 11:01:05;;;;;;;17.67;9.50;;;;;;;32.56;36.38;66463.28;5011487;28;20214;-54
2023/07/24 11:03:31;;;;;;;16.67;10.48;;;;;;;33.49;36.03;66566.06;5011492;28;20198;-53
2023/07/24 11:05:58;;;;;;;20.85;10.20;;;;;;;33.32;35.28;66550.22;4993632;28;20221;-52
2023/07/24 11:08:24;;;;;;;13.02;9.60;;;;;;;32.39;35.85;66446.31;5011284;28;20210;-53
2023/07/24 11:10:55;;;;;;;16.60;10.25;;;;;;;32.30;36.97;66436.84;5011653;28;20237;-54
2023/07/24 11:13:23;;;;;;;20.17;10.43;;;;;;;32.80;36.41;66495.28;4994052;28;20731;-54
2023/07/24 11:15:51;;;;;;;15.23;10.00;;;;;;;32.77;35.68;66486.16;5011219;28;20257;-53
2023/07/24 11:18:17;;;;;;;13.23;8.20;;;;;;;32.77;35.43;66488.75;5010023;28;20203;-54